Time;durP1;ratioP1;P1;durP2;ratioP2;P2;SDS_P1;SDS_P2;PMS_P1;PMS_P2;Temp;Humidity;BMP_temperature;BMP_pressure;BME280_temperature;BME280_humidity;BME280_pressure;Samples;Min_cycle;Max_cycle;Signal;HPM_P1;HPM_P2
2022/04/04 00:00:14;;;;;;;3.03;1.67;;;;;;;25.39;24.16;102332.72;4955027;29;20031;-46
2022/04/04 00:02:43;;;;;;;2.75;1.85;;;;;;;25.46;24.26;102332.09;4955478;29;20392;-46
2022/04/04 00:05:11;;;;;;;3.83;1.90;;;;;;;25.41;24.52;102331.03;4954990;29;20031;-47
2022/04/04 00:07:40;;;;;;;2.85;1.75;;;;;;;25.33;24.42;102331.69;4955022;29;20079;-44
2022/04/04 00:10:09;;;;;;;2.53;1.70;;;;;;;25.29;24.20;102324.59;4955276;29;20381;-46
2022/04/04 00:12:37;;;;;;;2.90;1.70;;;;;;;25.34;24.36;102338.72;4955324;29;20035;-44
2022/04/04 00:15:06;;;;;;;2.88;1.95;;;;;;;25.33;24.42;102330.81;4954616;29;20503;-49
2022/04/04 00:17:35;;;;;;;2.75;1.60;;;;;;;25.26;24.55;102324.50;4955104;29;20019;-45
2022/04/04 00:20:05;;;;;;;3.38;1.70;;;;;;;25.22;24.19;102314.75;4954749;29;20500;-45
2022/04/04 00:22:34;;;;;;;2.45;1.60;;;;;;;25.22;24.29;102314.75;4954777;29;20039;-51
2022/04/04 00:25:02;;;;;;;2.85;1.60;;;;;;;25.25;24.49;102312.22;4954944;29;20027;-48
2022/04/04 00:27:31;;;;;;;3.92;1.70;;;;;;;25.17;24.78;102305.81;4954882;29;20028;-51
2022/04/04 00:30:00;;;;;;;3.30;1.50;;;;;;;25.12;24.59;102307.44;4954724;29;20163;-49
2022/04/04 00:32:28;;;;;;;3.17;1.85;;;;;;;25.10;24.78;102312.63;4954675;29;20074;-45
2022/04/04 00:35:00;;;;;;;2.78;1.80;;;;;;;25.11;24.84;102303.91;4955163;29;20024;-50
2022/04/04 00:37:28;;;;;;;2.85;1.50;;;;;;;25.14;24.79;102303.13;4938428;29;20481;-48
2022/04/04 00:39:57;;;;;;;2.55;1.50;;;;;;;25.17;24.52;102293.59;4954685;29;20046;-47
2022/04/04 00:42:26;;;;;;;2.70;1.60;;;;;;;25.17;24.50;102297.94;4954627;29;20444;-47
2022/04/04 00:44:54;;;;;;;2.70;1.35;;;;;;;25.14;24.48;102293.50;4940526;29;20465;-45
2022/04/04 00:47:23;;;;;;;2.10;1.40;;;;;;;25.12;24.42;102286.44;4958232;29;20042;-51
2022/04/04 00:49:51;;;;;;;3.13;1.52;;;;;;;25.13;24.23;102285.59;4958350;29;20027;-46
2022/04/04 00:52:20;;;;;;;1.98;1.20;;;;;;;25.11;24.58;102295.16;4958113;29;20031;-44
2022/04/04 00:54:48;;;;;;;2.70;1.50;;;;;;;25.10;24.38;102290.75;4958402;29;20031;-44
2022/04/04 00:57:17;;;;;;;2.45;1.30;;;;;;;25.11;24.31;102296.03;4958373;29;20027;-48
2022/04/04 00:59:46;;;;;;;2.63;1.50;;;;;;;25.12;24.39;102289.06;4941095;29;20027;-47
2022/04/04 01:02:15;;;;;;;2.78;1.40;;;;;;;25.14;24.22;102288.25;4958449;29;20060;-49
2022/04/04 01:04:42;;;;;;;2.47;1.35;;;;;;;25.11;24.63;102290.78;4958274;29;20027;-47
2022/04/04 01:07:11;;;;;;;2.20;1.40;;;;;;;25.03;24.39;102293.19;4957744;29;20035;-45
2022/04/04 01:09:40;;;;;;;2.47;1.33;;;;;;;25.04;24.63;102283.59;4957573;29;20038;-47
2022/04/04 01:12:09;;;;;;;2.55;1.10;;;;;;;24.99;24.20;102270.31;4957902;29;20476;-47
2022/04/04 01:14:41;;;;;;;1.98;1.20;;;;;;;25.10;24.52;102275.00;4957834;29;20043;-47
2022/04/04 01:17:10;;;;;;;2.33;1.40;;;;;;;25.00;24.38;102266.84;4958500;29;20146;-50
2022/04/04 01:19:38;;;;;;;2.30;1.23;;;;;;;25.05;23.98;102264.38;4957864;29;20400;-46
2022/04/04 01:22:08;;;;;;;3.58;1.70;;;;;;;25.03;24.24;102261.69;4957744;29;20362;-48
2022/04/04 01:24:38;;;;;;;3.03;1.20;;;;;;;25.03;24.17;102258.19;4958105;29;20042;-48
2022/04/04 01:27:07;;;;;;;2.88;1.30;;;;;;;24.96;24.46;102254.50;4957439;29;20035;-46
2022/04/04 01:29:37;;;;;;;1.90;1.27;;;;;;;25.00;24.61;102261.59;4957315;29;20050;-47
2022/04/04 01:32:06;;;;;;;2.13;1.13;;;;;;;24.99;24.19;102254.56;4957763;29;20031;-48
2022/04/04 01:34:35;;;;;;;1.77;1.10;;;;;;;24.99;24.25;102251.94;4957765;29;20027;-48
2022/04/04 01:37:04;;;;;;;2.25;1.10;;;;;;;24.96;24.50;102249.25;4957983;29;20050;-48
2022/04/04 01:39:33;;;;;;;2.17;1.30;;;;;;;24.94;24.43;102252.66;4957715;29;20051;-47
2022/04/04 01:42:01;;;;;;;2.33;1.30;;;;;;;24.92;24.62;102242.13;4957323;29;20448;-50
2022/04/04 01:44:30;;;;;;;1.90;1.20;;;;;;;24.97;24.55;102240.53;4957563;29;20031;-50
2022/04/04 01:46:58;;;;;;;2.40;1.40;;;;;;;24.99;24.08;102233.56;4957241;29;20053;-48
2022/04/04 01:49:27;;;;;;;2.10;1.23;;;;;;;25.00;24.39;102232.72;4957079;29;20034;-42
2022/04/04 01:51:56;;;;;;;1.63;1.20;;;;;;;24.99;24.29;102240.56;4956610;29;20039;-48
2022/04/04 01:54:24;;;;;;;2.17;1.35;;;;;;;24.87;24.54;102236.75;4956461;28;20038;-50
2022/04/04 01:56:53;;;;;;;3.20;1.30;;;;;;;24.85;24.71;102242.75;4940205;29;20504;-48
2022/04/04 01:59:21;;;;;;;1.95;1.23;;;;;;;24.82;24.50;102242.69;4956930;29;20113;-48
2022/04/04 02:01:50;;;;;;;2.53;1.20;;;;;;;24.81;24.12;102230.41;4957545;29;20031;-51
2022/04/04 02:04:18;;;;;;;2.17;1.25;;;;;;;24.81;24.49;102227.78;4956971;29;20106;-47
2022/04/04 02:06:47;;;;;;;1.95;1.15;;;;;;;24.80;24.35;102236.50;4956865;29;20477;-48
2022/04/04 02:09:16;;;;;;;3.03;1.30;;;;;;;24.83;24.51;102228.69;4956988;29;20043;-50
2022/04/04 02:11:45;;;;;;;1.92;1.05;;;;;;;24.87;24.39;102230.59;4956757;29;20046;-50
2022/04/04 02:14:14;;;;;;;1.75;0.90;;;;;;;24.79;24.72;102232.09;4957055;29;20031;-47
2022/04/04 02:16:42;;;;;;;1.40;0.75;;;;;;;24.78;24.50;102225.94;4956816;29;20492;-48
2022/04/04 02:19:10;;;;;;;1.80;1.08;;;;;;;24.76;24.51;102221.50;4956797;29;20394;-48
2022/04/04 02:21:39;;;;;;;1.98;1.20;;;;;;;24.77;24.66;102218.03;4956714;29;20437;-50
2022/04/04 02:24:08;;;;;;;1.65;1.08;;;;;;;24.83;24.54;102218.19;4956273;29;20035;-50
2022/04/04 02:26:36;;;;;;;1.35;0.90;;;;;;;24.71;24.43;102214.38;4956693;29;20465;-50
2022/04/04 02:29:05;;;;;;;1.40;0.90;;;;;;;24.76;24.30;102224.13;4956480;29;20055;-47
2022/04/04 02:31:34;;;;;;;1.95;1.00;;;;;;;24.75;24.34;102222.34;4956300;29;20448;-50
2022/04/04 02:34:02;;;;;;;1.25;0.90;;;;;;;24.71;24.20;102217.00;4939171;29;20035;-50
2022/04/04 02:36:31;;;;;;;1.55;0.95;;;;;;;24.77;24.28;102218.91;4956584;29;20051;-49
2022/04/04 02:39:00;;;;;;;1.23;0.82;;;;;;;24.73;24.20;102211.81;4955767;29;20038;-43
2022/04/04 02:41:28;;;;;;;1.42;1.00;;;;;;;24.76;24.16;102211.88;4956779;29;20449;-49
2022/04/04 02:43:57;;;;;;;1.90;1.08;;;;;;;24.75;24.14;102219.72;4956449;29;20469;-48
2022/04/04 02:46:25;;;;;;;1.52;1.02;;;;;;;24.71;24.29;102216.13;4956331;29;20053;-47
2022/04/04 02:48:54;;;;;;;1.23;0.82;;;;;;;24.72;24.38;102215.28;4956215;29;20042;-47
2022/04/04 02:51:22;;;;;;;2.45;1.25;;;;;;;24.64;24.13;102207.16;4956200;29;20110;-47
2022/04/04 02:53:51;;;;;;;0.70;0.68;;;;;;;24.67;24.51;102207.22;4956011;29;20477;-47
2022/04/04 02:56:41;;;;;;;1.80;0.90;;;;;;;24.63;24.34;102209.72;4956017;29;20035;-45
2022/04/04 02:59:07;;;;;;;1.60;1.00;;;;;;;24.64;24.44;102201.00;4955311;29;20040;-50
2022/04/04 03:01:36;;;;;;;2.15;0.88;;;;;;;24.56;24.41;102190.28;4956036;29;20031;-50
2022/04/04 03:04:05;;;;;;;1.20;0.90;;;;;;;24.59;24.51;102195.63;4956205;29;20162;-49
2022/04/04 03:06:35;;;;;;;1.65;0.95;;;;;;;24.61;24.39;102193.94;4955384;28;20106;-46
2022/04/04 03:09:04;;;;;;;1.08;0.90;;;;;;;24.64;24.38;102187.88;4956026;29;20035;-50
2022/04/04 03:11:32;;;;;;;1.48;1.02;;;;;;;24.60;24.20;102183.38;4955825;29;20058;-50
2022/04/04 03:14:01;;;;;;;1.30;0.90;;;;;;;24.63;24.49;102186.09;4955851;29;20173;-52
2022/04/04 03:16:29;;;;;;;1.98;0.88;;;;;;;24.66;24.38;102183.56;4955844;29;20128;-49
2022/04/04 03:18:59;;;;;;;1.90;1.00;;;;;;;24.55;24.34;102178.00;4955653;29;20050;-50
2022/04/04 03:21:28;;;;;;;1.52;1.00;;;;;;;24.60;24.17;102180.75;4955931;29;20027;-50
2022/04/04 03:23:56;;;;;;;1.08;0.75;;;;;;;24.63;24.48;102180.84;4955568;29;20042;-49
2022/04/04 03:26:25;;;;;;;1.70;0.80;;;;;;;24.57;24.52;102178.94;4955621;29;20366;-50
2022/04/04 03:28:53;;;;;;;1.30;0.90;;;;;;;24.60;24.27;102172.88;4955758;29;20172;-53
2022/04/04 03:31:22;;;;;;;1.80;0.90;;;;;;;24.60;24.27;102173.78;4954786;29;20474;-52
2022/04/04 03:33:51;;;;;;;1.63;0.73;;;;;;;24.60;23.96;102160.69;4955734;29;20036;-52
2022/04/04 03:36:20;;;;;;;1.50;0.80;;;;;;;24.54;24.15;102158.78;4955485;29;20035;-49
2022/04/04 03:38:49;;;;;;;1.35;0.90;;;;;;;24.53;24.04;102159.63;4955162;29;20035;-51
2022/04/04 03:41:18;;;;;;;1.83;1.00;;;;;;;24.53;24.27;102157.00;4955260;29;20039;-47
2022/04/04 03:43:46;;;;;;;1.67;1.20;;;;;;;24.56;23.99;102151.84;4955285;29;20058;-53
2022/04/04 03:46:15;;;;;;;2.38;1.15;;;;;;;24.54;24.23;102150.91;4954749;29;20030;-50
2022/04/04 03:48:43;;;;;;;1.15;0.90;;;;;;;24.53;24.46;102150.84;4938193;29;20034;-50
2022/04/04 03:51:12;;;;;;;1.55;1.05;;;;;;;24.58;23.88;102151.88;4954814;29;20027;-52
2022/04/04 03:53:41;;;;;;;1.52;0.80;;;;;;;24.53;24.05;102140.34;4955286;29;20030;-46
2022/04/04 03:56:10;;;;;;;2.38;0.90;;;;;;;24.49;23.94;102136.75;4955104;29;20027;-51
2022/04/04 03:58:39;;;;;;;1.75;1.02;;;;;;;24.48;24.16;102136.72;4955494;29;20038;-47
2022/04/04 04:01:07;;;;;;;1.63;1.30;;;;;;;24.44;24.41;102130.47;4955517;29;20043;-50
2022/04/04 04:03:36;;;;;;;1.23;0.82;;;;;;;24.45;24.34;102131.38;4955547;29;20046;-48
2022/04/04 04:06:14;;;;;;;1.92;1.00;;;;;;;24.41;24.37;102133.91;4955208;29;20054;-44
2022/04/04 04:08:46;;;;;;;1.65;0.93;;;;;;;24.38;24.27;102128.56;4955070;29;20062;-43
2022/04/04 04:11:16;;;;;;;1.13;0.93;;;;;;;24.39;24.21;102132.97;4955242;29;20031;-44
2022/04/04 04:13:46;;;;;;;1.42;1.02;;;;;;;24.42;24.52;102132.16;4955009;29;20525;-43
2022/04/04 04:16:14;;;;;;;0.98;0.70;;;;;;;24.42;24.14;102126.91;4955389;29;20396;-43
2022/04/04 04:18:44;;;;;;;1.83;1.00;;;;;;;24.42;24.28;102134.78;4955336;28;20035;-45
2022/04/04 04:21:13;;;;;;;2.08;1.00;;;;;;;24.41;24.27;102138.25;4958992;29;20050;-44
2022/04/04 04:23:42;;;;;;;1.67;0.93;;;;;;;24.36;24.30;102127.63;4941473;29;20043;-44
2022/04/04 04:26:13;;;;;;;1.15;0.93;;;;;;;24.38;24.09;102119.81;4958707;29;20489;-44
2022/04/04 04:28:43;;;;;;;1.15;0.70;;;;;;;24.39;24.37;102125.09;4958726;29;20219;-45
2022/04/04 04:31:11;;;;;;;1.23;0.90;;;;;;;24.37;24.09;102126.78;4958379;29;20170;-45
2022/04/04 04:33:40;;;;;;;1.95;1.05;;;;;;;24.42;24.23;102130.44;4958580;29;20358;-43
2022/04/04 04:36:09;;;;;;;1.77;1.00;;;;;;;24.39;24.32;102118.97;4958547;29;20090;-44
2022/04/04 04:38:37;;;;;;;1.17;0.90;;;;;;;24.37;24.24;102113.66;4958325;29;20110;-44
2022/04/04 04:41:06;;;;;;;1.20;1.10;;;;;;;24.36;24.10;102101.41;4958627;29;20484;-43
2022/04/04 04:43:34;;;;;;;1.48;1.05;;;;;;;24.41;23.86;102115.53;4958973;29;20483;-43
2022/04/04 04:46:03;;;;;;;1.50;1.00;;;;;;;24.36;24.07;102117.13;4958281;29;20039;-46
2022/04/04 04:48:32;;;;;;;2.75;1.00;;;;;;;24.35;23.91;102117.09;4958445;29;20396;-43
2022/04/04 04:51:00;;;;;;;1.92;1.20;;;;;;;24.33;24.09;102124.91;4958314;29;20393;-44
2022/04/04 04:53:29;;;;;;;1.77;1.25;;;;;;;24.31;24.03;102121.38;4958277;29;20035;-46
2022/04/04 04:55:57;;;;;;;3.10;1.05;;;;;;;24.34;24.08;102118.81;4958383;29;20389;-44
2022/04/04 04:58:25;;;;;;;1.42;0.82;;;;;;;24.34;24.49;102118.81;4958544;29;20373;-48
2022/04/04 05:00:53;;;;;;;1.50;1.10;;;;;;;24.28;24.09;102116.91;4958286;29;20027;-48
2022/04/04 05:03:25;;;;;;;2.08;1.00;;;;;;;24.30;24.01;102114.34;4958159;29;20380;-50
2022/04/04 05:05:53;;;;;;;1.63;1.15;;;;;;;24.30;24.08;102116.06;4958742;29;20385;-45
2022/04/04 05:08:21;;;;;;;1.60;1.10;;;;;;;24.29;24.40;102107.31;4957406;29;20109;-44
2022/04/04 05:10:50;;;;;;;2.42;1.20;;;;;;;24.25;24.45;102106.31;4957849;29;20023;-44
2022/04/04 05:13:19;;;;;;;1.70;1.10;;;;;;;24.29;24.01;102109.94;4958098;29;20148;-44
2022/04/04 05:15:48;;;;;;;2.15;1.05;;;;;;;24.32;24.33;102109.13;4957601;29;20031;-44
2022/04/04 05:18:16;;;;;;;2.20;0.90;;;;;;;24.36;23.84;102109.25;4940984;29;20421;-43
2022/04/04 05:20:45;;;;;;;2.97;1.42;;;;;;;24.27;23.96;102111.63;4957830;29;20062;-47
2022/04/04 05:23:14;;;;;;;1.52;1.10;;;;;;;24.27;24.13;102106.38;4957814;29;20397;-46
2022/04/04 05:25:42;;;;;;;2.22;1.20;;;;;;;24.27;23.95;102099.38;4957938;29;20023;-45
2022/04/04 05:28:11;;;;;;;1.45;1.10;;;;;;;24.27;24.45;102102.00;4957631;29;20083;-46
2022/04/04 05:30:41;;;;;;;1.95;1.10;;;;;;;24.31;24.30;102105.63;4956377;28;20062;-46
2022/04/04 05:33:10;;;;;;;1.45;1.00;;;;;;;24.31;24.32;102102.09;4956838;29;20497;-48
2022/04/04 05:35:38;;;;;;;1.80;1.20;;;;;;;24.29;24.11;102099.44;4957594;29;20039;-45
2022/04/04 05:38:07;;;;;;;1.98;1.13;;;;;;;24.33;24.26;102105.66;4958229;29;20033;-44
2022/04/04 05:40:35;;;;;;;2.10;1.00;;;;;;;24.32;24.08;102109.13;4957458;29;20027;-50
2022/04/04 05:43:04;;;;;;;2.10;1.13;;;;;;;24.36;24.06;102106.63;4957496;29;20034;-43
2022/04/04 05:45:33;;;;;;;1.63;1.10;;;;;;;24.31;24.04;102102.09;4957797;29;20034;-47
2022/04/04 05:48:01;;;;;;;1.45;0.90;;;;;;;24.26;24.24;102089.75;4957598;29;20031;-46
2022/04/04 05:50:30;;;;;;;1.58;1.00;;;;;;;24.36;24.27;102103.13;4957133;29;20117;-45
2022/04/04 05:52:58;;;;;;;1.77;1.02;;;;;;;24.36;24.30;102103.13;4957194;29;20114;-45
2022/04/04 05:55:26;;;;;;;1.52;0.70;;;;;;;24.32;24.42;102096.94;4940387;29;20415;-48
2022/04/04 05:57:53;;;;;;;1.85;1.13;;;;;;;24.30;24.05;102089.84;4932757;29;20032;-47
2022/04/04 06:00:21;;;;;;;3.15;1.10;;;;;;;24.35;24.40;102094.38;4936305;29;20127;-51
2022/04/04 06:02:49;;;;;;;3.25;1.05;;;;;;;24.37;24.13;102089.19;4936100;29;20067;-44
2022/04/04 06:05:17;;;;;;;2.20;1.00;;;;;;;24.35;24.10;102083.88;4948990;29;20066;-47
2022/04/04 06:07:44;;;;;;;1.73;1.20;;;;;;;24.36;24.35;102083.03;4953322;29;20028;-50
2022/04/04 06:10:15;;;;;;;1.33;0.93;;;;;;;24.41;24.06;102080.53;4950052;29;20039;-44
2022/04/04 06:12:44;;;;;;;2.35;0.90;;;;;;;24.42;24.00;102080.59;4919469;29;20051;-44
2022/04/04 06:15:12;;;;;;;2.88;1.00;;;;;;;24.38;24.29;102078.72;4934677;29;20035;-48
2022/04/04 06:17:39;;;;;;;1.17;0.95;;;;;;;24.40;24.22;102084.91;4938794;29;20087;-43
2022/04/04 06:20:08;;;;;;;1.38;1.02;;;;;;;24.39;24.02;102085.75;4952555;29;20246;-47
2022/04/04 06:22:37;;;;;;;5.43;1.10;;;;;;;24.43;24.10;102073.59;4952586;29;20040;-48
2022/04/04 06:25:08;;;;;;;3.78;0.88;;;;;;;24.39;24.30;102079.63;4951538;29;20034;-45
2022/04/04 06:27:37;;;;;;;3.70;1.08;;;;;;;24.41;24.09;102070.03;4952679;29;20035;-43
2022/04/04 06:30:05;;;;;;;2.17;0.90;;;;;;;24.46;24.18;102067.59;4935320;29;20413;-49
2022/04/04 06:32:33;;;;;;;7.30;1.02;;;;;;;24.48;23.86;102077.25;4949753;29;20039;-44
2022/04/04 06:35:00;;;;;;;3.17;1.25;;;;;;;24.41;24.12;102075.28;4940230;29;20065;-46
2022/04/04 06:37:29;;;;;;;2.03;1.05;;;;;;;24.45;24.11;102082.41;4935271;29;20027;-44
2022/04/04 06:39:57;;;;;;;1.70;0.90;;;;;;;24.46;23.79;102081.56;4935359;29;20031;-48
2022/04/04 06:42:25;;;;;;;2.30;1.10;;;;;;;24.43;24.06;102079.75;4934241;29;20040;-44
2022/04/04 06:44:54;;;;;;;2.33;0.85;;;;;;;24.45;23.85;102086.78;4942364;29;20024;-48
2022/04/04 06:47:22;;;;;;;2.60;1.27;;;;;;;24.46;24.12;102093.81;4936724;29;20183;-46
2022/04/04 06:49:52;;;;;;;1.58;0.90;;;;;;;24.45;23.82;102086.78;4935454;29;20024;-48
2022/04/04 06:52:21;;;;;;;4.40;1.20;;;;;;;24.44;24.11;102078.00;4951366;29;20097;-47
2022/04/04 06:54:48;;;;;;;1.55;1.08;;;;;;;24.41;23.86;102086.69;4949936;29;20035;-49
2022/04/04 06:57:17;;;;;;;1.75;1.00;;;;;;;24.40;24.34;102084.91;4952006;29;20481;-50
2022/04/04 06:59:46;;;;;;;5.13;0.88;;;;;;;24.43;24.31;102085.00;4949282;29;20032;-45
2022/04/04 07:02:14;;;;;;;1.80;1.05;;;;;;;24.43;24.02;102068.38;4935092;29;20508;-45
2022/04/04 07:04:43;;;;;;;4.95;1.55;;;;;;;24.44;24.06;102072.75;4929959;29;20031;-44
2022/04/04 07:07:11;;;;;;;4.00;1.40;;;;;;;24.47;24.27;102077.22;4934662;29;20039;-45
2022/04/04 07:09:40;;;;;;;1.35;0.90;;;;;;;24.43;24.10;102078.84;4938341;29;20019;-46
2022/04/04 07:12:09;;;;;;;2.55;1.45;;;;;;;24.43;24.43;102073.59;4938768;29;20031;-46
2022/04/04 07:14:37;;;;;;;3.63;1.05;;;;;;;24.42;24.06;102072.72;4936872;29;20039;-47
2022/04/04 07:17:06;;;;;;;2.30;1.17;;;;;;;24.43;24.28;102073.59;4934826;29;20054;-45
2022/04/04 07:19:35;;;;;;;5.40;1.00;;;;;;;24.40;24.43;102070.91;4933650;29;20059;-44
2022/04/04 07:22:03;;;;;;;1.13;0.70;;;;;;;24.39;24.49;102066.53;4934346;29;20035;-45
2022/04/04 07:24:32;;;;;;;2.75;1.40;;;;;;;24.41;24.49;102072.66;4933153;29;20039;-48
2022/04/04 07:26:59;;;;;;;2.40;1.05;;;;;;;24.43;24.20;102066.66;4942674;29;20122;-44
2022/04/04 07:29:26;;;;;;;2.42;1.10;;;;;;;24.43;24.29;102056.16;4950941;29;20051;-46
2022/04/04 07:31:55;;;;;;;1.83;1.30;;;;;;;24.46;24.02;102055.34;4951480;29;20031;-44
2022/04/04 07:34:23;;;;;;;7.65;1.45;;;;;;;24.43;24.58;102045.66;4948104;29;20039;-46
2022/04/04 07:36:51;;;;;;;2.83;1.60;;;;;;;24.44;24.05;102049.16;4950985;29;20066;-44
2022/04/04 07:39:19;;;;;;;1.77;1.30;;;;;;;24.45;24.27;102055.31;4914895;29;20115;-47
2022/04/04 07:41:48;;;;;;;2.70;1.23;;;;;;;24.43;24.34;102048.28;4920418;29;20068;-47
2022/04/04 07:44:17;;;;;;;2.08;1.35;;;;;;;24.43;24.54;102056.16;4949945;29;20035;-47
2022/04/04 07:46:45;;;;;;;1.95;1.40;;;;;;;24.40;24.19;102053.44;4933785;29;20111;-46
2022/04/04 07:49:13;;;;;;;4.18;1.25;;;;;;;24.43;24.44;102055.25;4940385;29;20030;-47
2022/04/04 07:51:41;;;;;;;5.88;1.77;;;;;;;24.47;24.09;102056.25;4943928;29;20110;-44
2022/04/04 07:54:09;;;;;;;2.35;1.70;;;;;;;24.47;24.48;102057.13;4949050;28;20039;-44
2022/04/04 07:56:36;;;;;;;5.50;2.03;;;;;;;24.45;24.38;102058.81;4951719;29;20024;-50
2022/04/04 07:59:05;;;;;;;5.45;1.92;;;;;;;24.47;24.43;102049.25;4950531;29;20413;-43
2022/04/04 08:01:33;;;;;;;3.42;2.05;;;;;;;24.46;24.23;102041.34;4951343;29;20031;-43
2022/04/04 08:04:01;;;;;;;6.20;2.10;;;;;;;24.49;24.33;102041.44;4937374;29;20122;-45
2022/04/04 08:06:29;;;;;;;7.63;2.97;;;;;;;24.51;24.65;102045.88;4934460;29;20032;-48
2022/04/04 08:08:57;;;;;;;3.92;2.40;;;;;;;24.51;24.24;102045.88;4933769;29;20572;-45
2022/04/04 08:11:25;;;;;;;7.30;2.42;;;;;;;24.50;24.46;102041.47;4935225;29;20038;-45
2022/04/04 08:13:53;;;;;;;4.65;2.40;;;;;;;24.49;24.64;102036.19;4933459;29;20107;-46
2022/04/04 08:16:22;;;;;;;3.10;2.40;;;;;;;24.49;24.63;102037.06;4935437;29;20431;-44
2022/04/04 08:18:51;;;;;;;4.50;2.53;;;;;;;24.54;24.39;102037.19;4934991;29;20489;-44
2022/04/04 08:21:19;;;;;;;6.93;3.15;;;;;;;24.56;24.54;102038.13;4935985;29;20031;-45
2022/04/04 08:23:48;;;;;;;4.07;2.88;;;;;;;24.54;24.75;102034.56;4934886;29;20038;-47
2022/04/04 08:26:15;;;;;;;3.65;2.65;;;;;;;24.55;24.29;102026.75;4935463;29;20517;-50
2022/04/04 08:28:44;;;;;;;4.22;2.40;;;;;;;24.62;24.29;102034.78;4935202;29;20039;-45
2022/04/04 08:31:12;;;;;;;6.55;3.40;;;;;;;24.58;24.49;102036.44;4918646;29;20035;-47
2022/04/04 08:33:40;;;;;;;5.63;3.15;;;;;;;24.60;24.30;102029.50;4935540;29;20047;-48
2022/04/04 08:36:08;;;;;;;4.10;2.97;;;;;;;24.63;24.66;102026.97;4935641;29;20075;-45
2022/04/04 08:38:38;;;;;;;4.80;2.58;;;;;;;24.60;24.69;102021.63;4935299;29;20027;-44
2022/04/04 08:41:07;;;;;;;4.47;2.85;;;;;;;24.61;24.58;102023.41;4935108;29;20095;-44
2022/04/04 08:43:39;;;;;;;4.43;2.53;;;;;;;24.61;24.55;102018.16;4932740;29;20374;-43
2022/04/04 08:46:08;;;;;;;3.63;2.70;;;;;;;24.60;24.82;101998.03;4933568;29;20123;-46
2022/04/04 08:48:37;;;;;;;5.35;3.38;;;;;;;24.64;25.01;102005.13;4935907;29;20556;-44
2022/04/04 08:51:07;;;;;;;10.20;3.15;;;;;;;24.52;24.51;101981.16;4950859;29;20042;-44
2022/04/04 08:53:35;;;;;;;6.90;2.78;;;;;;;24.68;24.57;102001.72;4932938;29;20019;-43
2022/04/04 08:56:04;;;;;;;3.65;2.55;;;;;;;24.71;24.68;102007.09;4916350;29;20059;-45
2022/04/04 08:58:31;;;;;;;4.55;2.80;;;;;;;24.72;24.63;102011.50;4933750;29;20112;-44
2022/04/04 09:00:59;;;;;;;6.20;2.95;;;;;;;24.71;24.62;102006.22;4933328;29;20537;-47
2022/04/04 09:03:31;;;;;;;3.63;2.40;;;;;;;24.70;24.54;102010.56;4935141;29;20064;-46
2022/04/04 09:05:59;;;;;;;5.18;2.33;;;;;;;24.75;24.56;102004.53;4937899;29;20150;-46
2022/04/04 09:08:29;;;;;;;4.07;2.35;;;;;;;24.72;24.84;102008.00;4938663;29;20031;-47
2022/04/04 09:11:00;;;;;;;4.30;2.10;;;;;;;24.75;24.67;101999.31;4938885;29;20572;-45
2022/04/04 09:13:29;;;;;;;12.18;2.03;;;;;;;24.75;24.61;102005.41;4938650;29;20035;-44
2022/04/04 09:15:59;;;;;;;4.60;1.90;;;;;;;24.77;24.44;102003.72;4938309;29;20031;-44
2022/04/04 09:18:47;;;;;;;3.67;2.00;;;;;;;24.79;24.41;101993.28;4938535;29;20035;-44
2022/04/04 09:21:18;;;;;;;4.00;1.80;;;;;;;24.77;24.58;101992.34;4938670;29;20031;-48
2022/04/04 09:23:47;;;;;;;7.78;2.38;;;;;;;24.81;24.43;101994.22;4938427;29;20032;-48
2022/04/04 09:26:43;;;;;;;3.20;1.90;;;;;;;24.78;24.39;101995.00;4938545;29;20370;-48
2022/04/04 09:29:16;;;;;;;5.65;1.88;;;;;;;24.81;24.65;101995.09;4937680;29;20414;-44
2022/04/04 09:32:11;;;;;;;2.08;1.23;;;;;;;24.80;24.21;101995.06;4938393;29;20501;-45
2022/04/04 09:35:01;;;;;;;3.97;1.70;;;;;;;24.80;24.31;101987.19;4939351;29;20024;-45
2022/04/04 09:37:33;;;;;;;4.47;1.70;;;;;;;24.79;24.70;101991.53;4938557;29;20095;-46
2022/04/04 09:40:19;;;;;;;2.72;1.50;;;;;;;24.81;24.70;101983.72;4938452;29;20055;-45
2022/04/04 09:43:07;;;;;;;4.50;1.52;;;;;;;24.81;24.49;101986.34;4935084;29;20039;-43
2022/04/04 09:45:36;;;;;;;6.45;1.30;;;;;;;24.79;24.31;101988.03;4938212;29;20043;-44
2022/04/04 09:48:07;;;;;;;2.92;1.60;;;;;;;24.77;24.72;101982.75;4938015;29;20024;-44
2022/04/04 09:50:38;;;;;;;2.00;1.13;;;;;;;24.80;24.38;101982.81;4938387;29;20083;-43
2022/04/04 09:53:09;;;;;;;1.88;1.20;;;;;;;24.78;24.23;101978.41;4938153;29;20035;-45
2022/04/04 09:55:41;;;;;;;3.85;1.20;;;;;;;24.79;24.47;101977.56;4937865;29;20036;-44
2022/04/04 09:58:12;;;;;;;7.10;1.30;;;;;;;24.82;24.66;101980.25;4921575;29;20166;-45
2022/04/04 10:00:42;;;;;;;3.17;1.40;;;;;;;24.82;24.44;101980.25;4937608;29;20477;-50
2022/04/04 10:03:14;;;;;;;3.33;1.00;;;;;;;24.80;24.59;101979.31;4937902;29;20027;-46
2022/04/04 10:06:06;;;;;;;5.20;1.10;;;;;;;24.85;24.34;101986.47;4937931;29;20032;-45
2022/04/04 10:08:35;;;;;;;2.08;1.10;;;;;;;24.86;24.42;101976.84;4921238;29;20028;-46
2022/04/04 10:11:04;;;;;;;1.85;1.13;;;;;;;24.87;24.32;101978.63;4921157;29;20028;-45
2022/04/04 10:13:33;;;;;;;2.20;1.00;;;;;;;24.85;24.66;101975.06;4920926;29;20035;-45
2022/04/04 10:16:02;;;;;;;3.05;1.08;;;;;;;24.87;24.54;101976.91;4937710;29;20054;-46
2022/04/04 10:18:31;;;;;;;1.98;0.98;;;;;;;24.88;24.41;101975.16;4920670;29;20024;-45
2022/04/04 10:20:59;;;;;;;2.65;0.85;;;;;;;24.87;24.84;101976.00;4936790;29;20068;-46
2022/04/04 10:23:28;;;;;;;1.25;0.75;;;;;;;24.84;24.60;101950.56;4937533;29;20391;-46
2022/04/04 10:25:58;;;;;;;2.25;0.93;;;;;;;24.90;24.80;101962.06;4937288;29;20024;-45
2022/04/04 10:28:31;;;;;;;1.48;0.70;;;;;;;24.91;24.80;101967.34;4937637;29;20028;-45
2022/04/04 10:31:01;;;;;;;0.90;0.73;;;;;;;24.87;24.75;101976.00;4937079;29;20040;-45
2022/04/04 10:33:30;;;;;;;1.88;0.75;;;;;;;24.90;24.73;101965.56;4937547;29;20482;-45
2022/04/04 10:36:03;;;;;;;2.75;1.08;;;;;;;24.87;24.69;101961.16;4937254;29;20039;-45
2022/04/04 10:38:34;;;;;;;1.35;0.80;;;;;;;24.87;24.81;101955.00;4937395;29;20087;-45
2022/04/04 10:41:07;;;;;;;3.70;1.10;;;;;;;24.89;24.74;101955.91;4937211;29;20032;-44
2022/04/04 10:43:39;;;;;;;4.32;0.70;;;;;;;24.92;25.04;101955.09;4936849;29;20466;-46
2022/04/04 10:46:12;;;;;;;5.18;1.15;;;;;;;24.92;24.74;101958.63;4936614;29;20032;-46
2022/04/04 10:48:45;;;;;;;3.63;0.70;;;;;;;24.92;24.80;101953.38;4937026;29;20031;-44
2022/04/04 10:51:18;;;;;;;0.95;0.60;;;;;;;24.92;24.37;101948.13;4920358;29;20567;-47
2022/04/04 10:53:51;;;;;;;1.75;0.70;;;;;;;24.89;24.43;101934.94;4937601;29;20039;-44
2022/04/04 10:56:22;;;;;;;2.03;0.70;;;;;;;24.96;24.61;101943.84;4936941;29;20159;-45
2022/04/04 10:58:53;;;;;;;1.52;0.60;;;;;;;24.97;24.61;101933.38;4937024;29;20163;-45
2022/04/04 11:01:24;;;;;;;1.98;0.80;;;;;;;24.95;24.71;101929.84;4936740;29;20413;-46
2022/04/04 11:03:52;;;;;;;0.73;0.52;;;;;;;24.96;24.76;101935.97;4937339;29;20540;-44
2022/04/04 11:09:32;;;;;;;3.40;0.70;;;;;;;24.99;24.96;101929.03;4916304;29;20039;-44
2022/04/04 11:12:00;;;;;;;1.30;0.73;;;;;;;24.98;24.47;101929.91;4937146;29;20102;-49
2022/04/04 11:14:31;;;;;;;1.23;0.47;;;;;;;24.99;24.88;101921.16;4936523;29;20032;-49
2022/04/04 11:17:07;;;;;;;0.98;0.40;;;;;;;25.03;24.82;101917.75;4936765;29;20028;-44
2022/04/04 11:20:21;;;;;;;0.60;0.50;;;;;;;25.03;24.64;101920.38;4936557;29;20389;-45
2022/04/04 11:22:55;;;;;;;1.55;0.70;;;;;;;25.00;24.77;101912.44;4930699;29;20036;-44
2022/04/04 11:25:29;;;;;;;1.00;0.77;;;;;;;25.02;24.67;101915.13;4935690;29;20027;-44
2022/04/04 11:27:58;;;;;;;1.50;0.50;;;;;;;25.01;24.72;101919.47;4936255;29;20071;-44
2022/04/04 11:30:26;;;;;;;0.80;0.50;;;;;;;25.02;24.49;101910.75;4936186;29;20499;-45
2022/04/04 11:32:57;;;;;;;0.88;0.50;;;;;;;25.01;24.66;101905.47;4936452;29;20067;-45
2022/04/04 11:35:30;;;;;;;1.30;0.57;;;;;;;25.02;24.74;101907.25;4936532;29;20034;-46
2022/04/04 11:38:05;;;;;;;1.08;0.55;;;;;;;25.06;24.53;101905.56;4936497;29;20035;-44